createdAt,value
2018-11-11T00:01:20.825Z,85.26
2018-11-11T00:03:49.402Z,84.92
2018-11-11T00:06:17.878Z,84.77
2018-11-11T00:08:46.391Z,84.67
2018-11-11T00:11:14.885Z,84.21
2018-11-11T00:13:43.453Z,83.62
2018-11-11T00:16:11.926Z,83.16
2018-11-11T00:18:40.502Z,82.72
2018-11-11T00:21:08.964Z,82.43
2018-11-11T00:23:37.473Z,82.11
2018-11-11T00:26:06.069Z,82.23
2018-11-11T00:28:34.601Z,82.17
2018-11-11T00:31:03.106Z,82.26
2018-11-11T00:33:31.580Z,82.58
2018-11-11T00:36:00.105Z,82.35
2018-11-11T00:38:29.924Z,82.38
2018-11-11T00:40:58.441Z,82.64
2018-11-11T00:43:26.973Z,83.01
2018-11-11T00:45:55.566Z,83.03
2018-11-11T00:48:24.049Z,83.75
2018-11-11T00:50:53.507Z,84.41
2018-11-11T00:53:21.999Z,84.77
2018-11-11T00:55:51.030Z,84.66
2018-11-11T00:58:19.528Z,84.71
2018-11-11T01:00:48.054Z,84.97
2018-11-11T01:03:16.558Z,84.59
2018-11-11T01:05:45.146Z,84.58
2018-11-11T01:08:13.624Z,84.68
2018-11-11T01:10:42.133Z,85.36
2018-11-11T01:13:10.621Z,85.74
2018-11-11T01:15:39.145Z,85.34
2018-11-11T01:18:07.636Z,85.15
2018-11-11T01:20:36.185Z,84.57
2018-11-11T01:23:05.053Z,83.76
2018-11-11T01:25:33.570Z,83.93
2018-11-11T01:28:02.042Z,83.58
2018-11-11T01:30:30.569Z,83.57
2018-11-11T01:32:59.074Z,83.32
2018-11-11T01:35:27.576Z,83.67
2018-11-11T01:37:56.122Z,83.38
2018-11-11T01:40:24.638Z,83.37
2018-11-11T01:42:53.145Z,83.71
2018-11-11T01:45:21.695Z,83.51
2018-11-11T01:47:50.357Z,83.29
2018-11-11T01:50:18.893Z,82.58
2018-11-11T01:52:48.379Z,82.39
2018-11-11T01:55:17.047Z,81.85
2018-11-11T01:57:45.901Z,82.04
2018-11-11T02:00:17.057Z,81.88
2018-11-11T02:02:46.236Z,81.63
2018-11-11T02:05:15.148Z,81.87
2018-11-11T02:07:44.619Z,81.66
2018-11-11T02:10:13.565Z,81.82
2018-11-11T02:12:43.257Z,82.44
2018-11-11T02:15:15.118Z,82.80
2018-11-11T02:17:44.114Z,82.70
2018-11-11T02:20:14.658Z,82.69
2018-11-11T02:22:44.297Z,82.21
2018-11-11T02:25:12.942Z,82.01
2018-11-11T02:27:41.477Z,81.69
2018-11-11T02:30:13.277Z,82.00
2018-11-11T02:32:43.921Z,81.90
2018-11-11T02:35:12.902Z,81.86
2018-11-11T02:37:41.611Z,82.12
2018-11-11T02:40:16.861Z,82.68
2018-11-11T02:42:46.431Z,82.22
2018-11-11T02:45:16.317Z,82.07
2018-11-11T02:47:45.066Z,83.09
2018-11-11T02:50:14.845Z,82.60
2018-11-11T02:52:43.998Z,82.91
2018-11-11T02:55:13.143Z,82.85
2018-11-11T02:57:42.070Z,82.57
2018-11-11T03:00:15.562Z,82.22
2018-11-11T03:02:44.743Z,81.87
2018-11-11T03:12:15.971Z,82.75
2018-11-11T03:14:44.388Z,82.54
2018-11-11T03:17:12.953Z,81.74
2018-11-11T03:19:41.567Z,82.20
2018-11-11T03:22:10.158Z,82.40
2018-11-11T03:24:38.638Z,82.56
2018-11-11T03:27:07.445Z,82.84
2018-11-11T03:29:36.203Z,83.07
2018-11-11T03:32:05.297Z,83.18
2018-11-11T03:34:33.948Z,83.10
2018-11-11T03:37:02.481Z,83.10
2018-11-11T03:39:31.027Z,83.41
2018-11-11T03:41:59.884Z,83.11
2018-11-11T03:44:28.387Z,83.88
2018-11-11T03:46:56.994Z,84.32
2018-11-11T03:49:25.497Z,84.55
2018-11-11T03:51:54.016Z,83.59
2018-11-11T03:54:22.463Z,83.48
2018-11-11T03:56:50.986Z,82.69
2018-11-11T03:59:19.450Z,82.32
2018-11-11T04:01:48.038Z,82.00
2018-11-11T04:04:16.509Z,81.57
2018-11-11T04:06:45.093Z,80.79
2018-11-11T04:09:13.619Z,81.51
2018-11-11T04:11:42.439Z,81.45
2018-11-11T04:14:11.557Z,81.79
2018-11-11T04:16:40.336Z,82.23
2018-11-11T04:19:09.481Z,82.55
2018-11-11T04:21:37.974Z,83.19
2018-11-11T04:24:06.825Z,83.87
2018-11-11T04:26:35.357Z,83.96
2018-11-11T04:29:03.963Z,84.54
2018-11-11T04:31:32.466Z,83.86
2018-11-11T04:34:01.294Z,83.51
2018-11-11T04:36:29.813Z,83.54
2018-11-11T04:38:58.428Z,83.92
2018-11-11T04:41:27.016Z,84.43
2018-11-11T04:43:56.356Z,84.61
2018-11-11T04:46:24.964Z,84.96
2018-11-11T04:48:53.405Z,84.81
2018-11-11T04:51:22.073Z,85.26
2018-11-11T04:53:50.618Z,85.28
2018-11-11T04:56:19.157Z,84.08
2018-11-11T04:58:47.702Z,84.29
2018-11-11T05:01:16.262Z,85.16
2018-11-11T05:03:44.788Z,86.05
2018-11-11T05:06:13.409Z,87.29
2018-11-11T05:08:41.890Z,86.65
2018-11-11T05:11:10.403Z,86.20
2018-11-11T05:13:39.071Z,86.09
2018-11-11T05:16:07.534Z,86.46
2018-11-11T05:18:36.067Z,86.84
2018-11-11T05:21:04.642Z,87.25
2018-11-11T05:23:33.193Z,87.28
2018-11-11T05:26:01.697Z,87.33
2018-11-11T05:28:30.327Z,87.12
2018-11-11T05:30:58.912Z,87.36
2018-11-11T05:33:27.399Z,86.70
2018-11-11T05:35:55.891Z,87.30
2018-11-11T05:38:24.414Z,87.42
2018-11-11T05:40:52.893Z,87.84
2018-11-11T05:43:21.428Z,87.92
2018-11-11T05:45:49.946Z,88.13
2018-11-11T05:48:18.470Z,87.94
2018-11-11T05:50:46.961Z,87.49
2018-11-11T05:53:15.489Z,88.55
2018-11-11T05:55:44.032Z,88.53
2018-11-11T05:58:12.554Z,88.40
2018-11-11T06:00:41.092Z,88.35
2018-11-11T06:03:09.630Z,88.47
2018-11-11T06:05:38.132Z,87.98
2018-11-11T06:08:06.646Z,88.27
2018-11-11T06:10:35.149Z,88.33
2018-11-11T06:13:03.622Z,88.48
2018-11-11T06:15:32.126Z,88.19
2018-11-11T06:18:00.578Z,88.33
2018-11-11T06:20:29.088Z,87.98
2018-11-11T06:22:57.565Z,87.98
2018-11-11T06:25:26.109Z,88.04
2018-11-11T06:27:54.598Z,87.17
2018-11-11T06:30:23.093Z,87.27
2018-11-11T06:32:51.550Z,87.39
2018-11-11T06:35:20.038Z,86.73
2018-11-11T06:37:48.501Z,86.54
2018-11-11T06:40:17.000Z,86.42
2018-11-11T06:42:45.485Z,85.96
2018-11-11T06:45:15.107Z,85.72
2018-11-11T06:47:44.336Z,86.07
2018-11-11T06:50:13.905Z,85.62
2018-11-11T06:52:42.863Z,85.87
2018-11-11T06:55:11.631Z,86.18
2018-11-11T06:57:40.315Z,86.67
2018-11-11T07:00:11.006Z,86.37
2018-11-11T07:02:40.588Z,86.11
2018-11-11T07:05:10.020Z,85.91
2018-11-11T07:07:38.498Z,86.30
2018-11-11T07:10:07.060Z,86.08
2018-11-11T07:12:35.559Z,86.40
2018-11-11T07:15:04.181Z,86.30
2018-11-11T07:17:32.688Z,86.27
2018-11-11T07:20:01.178Z,85.75
2018-11-11T07:22:29.681Z,85.61
2018-11-11T07:24:58.197Z,86.33
2018-11-11T07:27:26.694Z,86.04
2018-11-11T07:29:55.205Z,86.19
2018-11-11T07:32:25.401Z,86.42
2018-11-11T07:34:53.921Z,86.60
2018-11-11T07:37:22.436Z,86.10
2018-11-11T07:39:50.950Z,86.71
2018-11-11T07:42:19.473Z,87.08
2018-11-11T07:44:48.022Z,87.48
2018-11-11T07:47:16.473Z,87.10
2018-11-11T07:49:44.954Z,87.80
2018-11-11T07:52:13.516Z,87.15
2018-11-11T07:54:42.000Z,86.92
2018-11-11T07:57:10.480Z,86.29
2018-11-11T07:59:39.167Z,85.97
2018-11-11T08:02:08.138Z,86.18
2018-11-11T08:04:36.697Z,85.53
2018-11-11T08:07:05.704Z,84.50
2018-11-11T08:09:34.249Z,83.90
2018-11-11T08:12:05.825Z,84.19
2018-11-11T08:14:34.324Z,84.22
2018-11-11T08:17:02.880Z,84.74
2018-11-11T08:19:31.505Z,84.21
2018-11-11T08:22:00.117Z,84.07
2018-11-11T08:24:28.623Z,84.17
2018-11-11T08:26:57.189Z,83.92
2018-11-11T08:29:25.681Z,84.40
2018-11-11T08:31:54.193Z,85.14
2018-11-11T08:34:22.714Z,85.18
2018-11-11T08:36:51.530Z,84.50
2018-11-11T08:39:20.231Z,84.11
2018-11-11T08:41:48.765Z,84.21
2018-11-11T08:44:17.250Z,84.76
2018-11-11T08:46:46.446Z,84.26
2018-11-11T08:49:15.348Z,84.82
2018-11-11T08:51:43.886Z,84.58
2018-11-11T08:54:12.394Z,84.79
2018-11-11T08:56:40.973Z,84.16
2018-11-11T08:59:09.466Z,83.35
2018-11-11T09:01:37.983Z,83.54
2018-11-11T09:04:06.932Z,83.53
2018-11-11T09:06:36.415Z,83.03
2018-11-11T09:09:06.358Z,83.69
2018-11-11T09:11:34.904Z,83.67
2018-11-11T09:14:03.426Z,82.87
2018-11-11T09:16:31.975Z,82.94
2018-11-11T09:19:00.503Z,82.48
2018-11-11T09:21:29.163Z,82.79
2018-11-11T09:23:57.582Z,82.84
2018-11-11T09:26:26.118Z,83.05
2018-11-11T09:28:54.617Z,83.44
2018-11-11T09:31:23.136Z,83.64
2018-11-11T09:33:51.616Z,84.10
2018-11-11T09:36:20.152Z,84.13
2018-11-11T09:38:48.680Z,82.80
2018-11-11T09:41:17.146Z,82.88
2018-11-11T09:43:45.640Z,82.78
2018-11-11T09:46:14.140Z,82.97
2018-11-11T09:48:42.618Z,82.64
2018-11-11T09:51:11.126Z,81.42
2018-11-11T09:53:39.771Z,80.64
2018-11-11T09:56:08.133Z,79.60
2018-11-11T09:58:36.691Z,79.45
2018-11-11T10:01:05.231Z,79.60
2018-11-11T10:03:54.453Z,78.88
2018-11-11T10:08:30.832Z,79.14
2018-11-11T10:11:04.581Z,79.77
2018-11-11T10:13:46.182Z,78.71
2018-11-11T10:17:23.581Z,78.98
2018-11-11T10:20:27.992Z,79.19
2018-11-11T10:23:06.766Z,79.17
2018-11-11T10:25:43.654Z,79.34
2018-11-11T10:28:18.973Z,80.45
2018-11-11T10:30:57.589Z,80.04
2018-11-11T10:35:39.011Z,80.88
2018-11-11T10:38:13.400Z,80.18
2018-11-11T10:40:45.061Z,79.43
2018-11-11T10:43:21.249Z,77.94
2018-11-11T10:45:56.005Z,77.46
2018-11-11T10:48:27.490Z,78.48
2018-11-11T10:50:58.426Z,79.15
2018-11-11T10:53:26.929Z,79.05
2018-11-11T10:55:55.424Z,78.99
2018-11-11T10:58:23.919Z,78.21
2018-11-11T11:00:57.755Z,77.28
2018-11-11T11:03:31.730Z,78.16
2018-11-11T11:06:00.821Z,78.70
2018-11-11T11:08:29.218Z,79.76
2018-11-11T11:10:57.782Z,78.86
2018-11-11T11:13:26.685Z,79.49
2018-11-11T11:15:55.214Z,79.03
2018-11-11T11:18:23.690Z,78.72
2018-11-11T11:20:52.198Z,79.08
2018-11-11T11:23:20.678Z,78.60
2018-11-11T11:25:49.235Z,78.78
2018-11-11T11:28:17.672Z,79.05
2018-11-11T11:30:46.172Z,79.65
2018-11-11T11:33:14.648Z,79.72
2018-11-11T11:35:43.213Z,79.04
2018-11-11T11:38:11.694Z,77.56
2018-11-11T11:40:40.181Z,77.27
2018-11-11T11:43:08.659Z,77.04
2018-11-11T11:45:37.158Z,77.59
2018-11-11T11:48:05.669Z,78.56
2018-11-11T11:50:34.349Z,79.00
2018-11-11T11:53:02.734Z,80.49
2018-11-11T11:55:31.172Z,79.39
2018-11-11T11:58:13.494Z,78.09
2018-11-11T12:00:41.913Z,76.64
2018-11-11T12:03:10.374Z,75.36
2018-11-11T12:05:38.873Z,75.70
2018-11-11T12:08:07.346Z,74.36
2018-11-11T12:10:35.846Z,74.13
2018-11-11T12:13:04.341Z,75.59
2018-11-11T12:15:32.930Z,75.28
2018-11-11T12:18:01.740Z,77.01
2018-11-11T12:20:30.243Z,76.15
2018-11-11T12:22:59.635Z,74.93
2018-11-11T12:25:28.536Z,75.53
2018-11-11T12:27:57.494Z,76.80
2018-11-11T12:30:26.226Z,77.69
2018-11-11T12:32:54.694Z,76.18
2018-11-11T12:35:23.266Z,75.11
2018-11-11T12:37:51.793Z,74.06
2018-11-11T12:40:20.438Z,72.90
2018-11-11T12:42:48.890Z,74.32
2018-11-11T12:45:17.493Z,74.30
2018-11-11T12:47:46.395Z,73.19
2018-11-11T12:50:15.034Z,71.54
2018-11-11T12:52:43.547Z,71.84
2018-11-11T12:55:12.118Z,71.46
2018-11-11T12:57:40.615Z,71.72
2018-11-11T13:00:11.199Z,72.23
2018-11-11T13:02:39.809Z,72.83
2018-11-11T13:05:09.242Z,71.74
2018-11-11T13:07:37.764Z,71.46
2018-11-11T13:10:08.329Z,70.91
2018-11-11T13:12:36.829Z,72.07
2018-11-11T13:15:06.349Z,72.03
2018-11-11T13:17:34.930Z,69.25
2018-11-11T13:20:03.642Z,66.88
2018-11-11T13:22:32.173Z,66.29
2018-11-11T13:25:00.614Z,67.74
2018-11-11T13:27:29.104Z,67.69
2018-11-11T13:29:57.583Z,65.80
2018-11-11T13:32:26.066Z,65.36
2018-11-11T13:34:54.521Z,69.28
2018-11-11T13:37:23.024Z,70.83
2018-11-11T13:39:51.476Z,70.94
2018-11-11T13:42:19.953Z,69.34
2018-11-11T13:44:48.412Z,68.83
2018-11-11T13:47:16.901Z,68.01
2018-11-11T13:49:45.361Z,69.72
2018-11-11T13:52:13.885Z,70.18
2018-11-11T13:54:42.357Z,72.28
2018-11-11T13:57:10.878Z,71.97
2018-11-11T13:59:39.361Z,71.85
2018-11-11T14:02:08.014Z,70.97
2018-11-11T14:04:36.501Z,70.72
2018-11-11T14:07:05.129Z,70.55
2018-11-11T14:09:33.652Z,70.52
2018-11-11T14:12:02.259Z,70.16
2018-11-11T14:14:30.761Z,70.33
2018-11-11T14:16:59.288Z,71.19
2018-11-11T14:19:27.791Z,70.10
2018-11-11T14:21:56.321Z,70.34
2018-11-11T14:24:24.817Z,71.03
2018-11-11T14:26:53.397Z,70.63
2018-11-11T14:29:21.836Z,70.56
2018-11-11T14:31:50.368Z,70.92
2018-11-11T14:34:18.896Z,71.14
2018-11-11T14:36:47.984Z,72.47
2018-11-11T14:39:16.614Z,71.65
2018-11-11T14:41:45.126Z,72.12
2018-11-11T14:44:13.823Z,72.22
2018-11-11T14:46:43.258Z,73.71
2018-11-11T14:49:11.782Z,75.17
2018-11-11T14:51:40.488Z,76.44
2018-11-11T14:54:08.989Z,77.28
2018-11-11T14:56:37.489Z,77.75
2018-11-11T14:59:06.088Z,77.94
2018-11-11T15:01:34.634Z,78.54
2018-11-11T15:04:03.253Z,79.11
2018-11-11T15:06:31.701Z,79.63
2018-11-11T15:09:00.239Z,79.72
2018-11-11T15:11:28.777Z,79.57
2018-11-11T15:13:57.293Z,79.41
2018-11-11T15:16:25.852Z,79.55
2018-11-11T15:18:54.448Z,79.50
2018-11-11T15:21:22.880Z,79.76
2018-11-11T15:23:51.386Z,79.83
2018-11-11T15:26:19.884Z,80.33
2018-11-11T15:28:48.398Z,80.64
2018-11-11T15:31:16.971Z,80.85
2018-11-11T15:33:45.417Z,81.24
2018-11-11T15:36:13.933Z,81.44
2018-11-11T15:38:42.456Z,81.76
2018-11-11T15:41:11.010Z,81.59
2018-11-11T15:43:39.494Z,82.30
2018-11-11T15:46:08.008Z,82.69
2018-11-11T15:48:36.585Z,82.81
2018-11-11T15:51:05.133Z,82.81
2018-11-11T15:53:33.786Z,82.59
2018-11-11T15:56:02.538Z,82.06
2018-11-11T15:58:31.386Z,82.15
2018-11-11T16:00:59.905Z,82.09
2018-11-11T16:03:28.426Z,82.23
2018-11-11T16:05:56.953Z,82.77
2018-11-11T16:08:25.453Z,82.93
2018-11-11T16:10:53.918Z,82.84
2018-11-11T16:13:22.493Z,82.53
2018-11-11T16:15:51.007Z,82.64
2018-11-11T16:18:19.547Z,82.76
2018-11-11T16:20:48.043Z,83.02
2018-11-11T16:23:16.655Z,83.79
2018-11-11T16:25:45.251Z,83.82
2018-11-11T16:28:13.878Z,83.82
2018-11-11T16:30:42.406Z,84.33
2018-11-11T16:33:11.114Z,83.87
2018-11-11T16:35:39.706Z,84.16
2018-11-11T16:38:08.354Z,84.10
2018-11-11T16:40:37.735Z,83.95
2018-11-11T16:43:06.258Z,84.22
2018-11-11T16:45:35.706Z,84.12
2018-11-11T16:48:04.669Z,84.60
2018-11-11T16:50:34.349Z,84.66
2018-11-11T16:53:05.214Z,85.06
2018-11-11T16:55:34.630Z,85.72
2018-11-11T16:58:03.131Z,85.65
2018-11-11T17:00:33.021Z,85.81
2018-11-11T17:03:02.461Z,85.55
2018-11-11T17:05:32.408Z,85.96
2018-11-11T17:08:00.898Z,86.90
2018-11-11T17:10:32.364Z,86.29
2018-11-11T17:13:02.780Z,85.66
2018-11-11T17:15:32.190Z,85.63
2018-11-11T17:18:00.768Z,85.53
2018-11-11T17:20:29.663Z,85.81
2018-11-11T17:22:59.943Z,85.90
2018-11-11T17:25:28.808Z,86.00
2018-11-11T17:27:57.424Z,85.73
2018-11-11T17:30:27.278Z,85.92
2018-11-11T17:32:56.334Z,85.84
2018-11-11T17:35:24.837Z,86.13
2018-11-11T17:37:53.432Z,86.19
2018-11-11T17:40:23.457Z,86.06
2018-11-11T17:42:52.861Z,86.48
2018-11-11T17:45:21.486Z,86.45
2018-11-11T17:47:50.740Z,86.86
2018-11-11T17:50:23.887Z,86.79
2018-11-11T17:52:52.414Z,86.63
2018-11-11T17:55:22.956Z,86.76
2018-11-11T17:57:51.459Z,86.73
2018-11-11T18:00:21.448Z,86.55
2018-11-11T18:02:50.471Z,86.60
2018-11-11T18:05:20.361Z,86.79
2018-11-11T18:07:48.889Z,86.52
2018-11-11T18:10:18.799Z,86.50
2018-11-11T18:12:47.286Z,86.89
2018-11-11T18:15:18.124Z,86.87
2018-11-11T18:17:46.640Z,86.63
2018-11-11T18:20:17.549Z,86.42
2018-11-11T18:22:46.458Z,86.20
2018-11-11T18:25:15.359Z,86.32
2018-11-11T18:27:43.969Z,86.30
2018-11-11T18:30:18.036Z,86.28
2018-11-11T18:32:46.743Z,86.36
2018-11-11T18:35:16.278Z,86.58
2018-11-11T18:37:45.046Z,86.60
2018-11-11T18:40:14.855Z,86.35
2018-11-11T18:42:43.635Z,86.65
2018-11-11T18:45:22.996Z,86.98
2018-11-11T18:47:52.162Z,87.00
2018-11-11T18:50:24.262Z,87.57
2018-11-11T18:52:52.777Z,87.18
2018-11-11T18:55:21.324Z,87.47
2018-11-11T18:57:49.916Z,87.54
2018-11-11T19:00:20.978Z,87.61
2018-11-11T19:02:50.321Z,87.34
2018-11-11T19:05:19.757Z,87.48
2018-11-11T19:07:48.624Z,87.05
2018-11-11T19:10:18.703Z,86.80
2018-11-11T19:12:48.030Z,87.19
2018-11-11T19:15:17.607Z,87.22
2018-11-11T19:17:46.835Z,87.56
2018-11-11T19:20:17.825Z,87.44
2018-11-11T19:22:46.353Z,87.28
2018-11-11T19:25:16.416Z,87.40
2018-11-11T19:27:46.021Z,87.62
2018-11-11T19:30:15.333Z,87.68
2018-11-11T19:32:44.508Z,87.47
2018-11-11T19:35:14.165Z,87.60
2018-11-11T19:37:43.474Z,87.07
2018-11-11T19:40:14.495Z,87.37
2018-11-11T19:42:43.555Z,87.35
2018-11-11T19:45:13.597Z,87.34
2018-11-11T19:47:42.672Z,87.60
2018-11-11T19:50:12.999Z,87.75
2018-11-11T19:52:43.093Z,87.71
2018-11-11T19:55:13.358Z,87.56
2018-11-11T19:57:42.263Z,87.74
2018-11-11T20:00:17.460Z,87.65
2018-11-11T20:02:47.162Z,87.61
2018-11-11T20:05:16.414Z,87.27
2018-11-11T20:07:46.086Z,87.27
2018-11-11T20:10:15.679Z,87.12
2018-11-11T20:12:44.260Z,87.23
2018-11-11T20:15:14.212Z,87.54
2018-11-11T20:17:43.182Z,87.57
2018-11-11T20:20:14.197Z,86.78
2018-11-11T20:22:42.753Z,86.65
2018-11-11T20:25:12.630Z,86.64
2018-11-11T20:27:41.788Z,86.78
2018-11-11T20:30:14.162Z,87.11
2018-11-11T20:32:42.871Z,87.18
2018-11-11T20:35:13.004Z,88.01
2018-11-11T20:37:41.574Z,87.72
2018-11-11T20:40:15.353Z,87.94
2018-11-11T20:42:44.524Z,87.82
2018-11-11T20:45:14.082Z,88.20
2018-11-11T20:47:43.222Z,87.94
2018-11-11T20:50:14.414Z,88.38
2018-11-11T20:52:43.849Z,87.75
2018-11-11T20:55:13.006Z,87.97
2018-11-11T20:57:41.821Z,88.10
2018-11-11T21:00:19.976Z,87.81
2018-11-11T21:02:48.575Z,87.97
2018-11-11T21:05:21.387Z,87.26
2018-11-11T21:07:50.029Z,86.41
2018-11-11T21:10:20.837Z,86.61
2018-11-11T21:12:49.360Z,88.51
2018-11-11T21:15:19.076Z,88.45
2018-11-11T21:17:47.938Z,88.07
2018-11-11T21:20:17.836Z,87.16
2018-11-11T21:22:46.372Z,87.87
2018-11-11T21:25:15.195Z,89.06
2018-11-11T21:27:45.131Z,89.17
2018-11-11T21:30:15.388Z,89.29
2018-11-11T21:32:43.989Z,89.17
2018-11-11T21:35:12.770Z,89.62
2018-11-11T21:37:41.694Z,89.02
2018-11-11T21:40:12.709Z,89.36
2018-11-11T21:42:41.694Z,89.10
2018-11-11T21:45:11.949Z,88.98
2018-11-11T21:47:40.818Z,88.69
2018-11-11T21:50:11.370Z,88.19
2018-11-11T21:52:40.018Z,88.07
2018-11-11T21:55:09.050Z,88.39
2018-11-11T21:57:37.693Z,87.65
2018-11-11T22:00:07.954Z,87.80
2018-11-11T22:02:36.448Z,88.25
2018-11-11T22:05:06.241Z,87.97
2018-11-11T22:07:35.054Z,87.77
2018-11-11T22:10:03.830Z,87.38
2018-11-11T22:12:32.225Z,87.79
2018-11-11T22:15:00.798Z,88.00
2018-11-11T22:17:29.700Z,88.31
2018-11-11T22:19:58.229Z,88.12
2018-11-11T22:22:26.837Z,87.65
2018-11-11T22:24:55.313Z,87.25
2018-11-11T22:27:23.806Z,86.56
2018-11-11T22:29:52.690Z,86.64
2018-11-11T22:32:21.337Z,87.20
2018-11-11T22:34:49.884Z,87.16
2018-11-11T22:37:18.402Z,87.68
2018-11-11T22:39:46.936Z,88.21
2018-11-11T22:42:15.461Z,87.99
2018-11-11T22:44:44.013Z,88.63
2018-11-11T22:47:12.560Z,88.49
2018-11-11T22:49:41.107Z,88.65
2018-11-11T22:52:09.628Z,88.90
2018-11-11T22:54:38.223Z,88.67
2018-11-11T22:57:07.082Z,88.51
2018-11-11T22:59:35.627Z,88.61
2018-11-11T23:02:04.165Z,89.22
2018-11-11T23:04:32.727Z,89.08
2018-11-11T23:07:01.292Z,88.35
2018-11-11T23:09:29.822Z,87.80
2018-11-11T23:11:58.367Z,88.84
2018-11-11T23:14:26.904Z,88.62
2018-11-11T23:16:55.375Z,88.83
2018-11-11T23:19:23.937Z,89.21
2018-11-11T23:21:52.501Z,88.85
2018-11-11T23:24:21.021Z,88.49
2018-11-11T23:26:49.613Z,88.16
2018-11-11T23:29:18.132Z,88.30
2018-11-11T23:31:46.685Z,89.29
2018-11-11T23:34:15.174Z,89.24
2018-11-11T23:36:43.766Z,88.53
2018-11-11T23:39:12.273Z,88.11
2018-11-11T23:41:40.834Z,87.79
2018-11-11T23:44:09.839Z,88.65
2018-11-11T23:46:39.033Z,88.21
2018-11-11T23:49:09.059Z,87.77
2018-11-11T23:51:37.597Z,88.29
2018-11-11T23:54:06.377Z,88.07
2018-11-11T23:56:35.148Z,87.83
2018-11-11T23:59:03.737Z,87.58
